Time;durP1;ratioP1;P1;durP2;ratioP2;P2;SDS_P1;SDS_P2;PMS_P1;PMS_P2;Temp;Humidity;BMP_temperature;BMP_pressure;BME280_temperature;BME280_humidity;BME280_pressure;Samples;Min_cycle;Max_cycle;Signal;HPM_P1;HPM_P2
2022/05/17 00:00:13;;;;;;;9.43;7.00;;;;;;;;;;4439221;28;20043;-77
2022/05/17 00:02:24;;;;;;;9.63;6.85;;;;;;;;;;4440675;28;20810;-77
2022/05/17 00:04:35;;;;;;;7.50;6.40;;;;;;;;;;4437186;28;20098;-77
2022/05/17 00:06:46;;;;;;;9.00;6.72;;;;;;;;;;4438850;28;20639;-77
2022/05/17 00:08:58;;;;;;;9.45;7.03;;;;;;;;;;4423117;28;20024;-77
2022/05/17 00:11:11;;;;;;;4.70;3.60;;;;;;;;;;4422406;28;20968;-77
2022/05/17 00:13:22;;;;;;;3.63;2.70;;;;;;;;;;4439208;28;20035;-77
2022/05/17 00:15:33;;;;;;;3.00;2.20;;;;;;;;;;4439393;28;20040;-77
2022/05/17 00:17:45;;;;;;;4.15;2.35;;;;;;;;;;4440492;28;20126;-77
2022/05/17 00:19:55;;;;;;;;;;;;;;;;;;4439117;28;21212;-77
2022/05/17 00:22:07;;;;;;;1.97;1.80;;;;;;;;;;4438056;28;28033;-77
2022/05/17 00:24:20;;;;;;;2.20;1.95;;;;;;;;;;4439456;28;20046;-77
2022/05/17 00:26:34;;;;;;;2.17;1.88;;;;;;;;;;4439948;28;20039;-77
2022/05/17 00:28:44;;;;;;;2.80;2.08;;;;;;;;;;4439341;28;20036;-76
2022/05/17 00:30:55;;;;;;;2.17;1.97;;;;;;;;;;4439017;28;29715;-77
2022/05/17 00:33:05;;;;;;;1.83;1.67;;;;;;;;;;4437369;28;20331;-76
2022/05/17 00:35:15;;;;;;;1.77;1.10;;;;;;;;;;4438860;28;22753;-77
2022/05/17 00:37:26;;;;;;;1.23;1.13;;;;;;;;;;4439104;28;20625;-77
2022/05/17 00:39:36;;;;;;;1.13;1.03;;;;;;;;;;4439812;28;20028;-77
2022/05/17 00:41:47;;;;;;;0.90;0.90;;;;;;;;;;4439454;28;28096;-77
2022/05/17 00:46:40;;;;;;;1.05;0.95;;;;;;;;;;4438647;28;20028;-77
2022/05/17 00:48:50;;;;;;;0.88;0.88;;;;;;;;;;4421598;28;20119;-76
2022/05/17 00:51:01;;;;;;;0.80;0.80;;;;;;;;;;4420687;28;35663;-77
2022/05/17 00:53:21;;;;;;;1.10;1.00;;;;;;;;;;4439763;28;20032;-77
2022/05/17 00:55:35;;;;;;;1.77;1.23;;;;;;;;;;4438603;28;20567;-77
2022/05/17 00:58:00;;;;;;;1.35;1.25;;;;;;;;;;4439995;28;20026;-77
2022/05/17 01:00:12;;;;;;;1.08;0.95;;;;;;;;;;4422504;28;20143;-76
2022/05/17 01:02:24;;;;;;;1.67;1.58;;;;;;;;;;4439192;28;20055;-77
2022/05/17 01:04:35;;;;;;;5.97;4.07;;;;;;;;;;4435959;28;20144;-76
2022/05/17 01:06:50;;;;;;;3.92;3.05;;;;;;;;;;4437852;28;38560;-77
2022/05/17 01:09:00;;;;;;;5.40;3.15;;;;;;;;;;4437493;28;20590;-77
2022/05/17 01:11:11;;;;;;;3.13;2.67;;;;;;;;;;4439858;28;20035;-77
2022/05/17 01:15:51;;;;;;;8.27;6.80;;;;;;;;;;4423664;28;20031;-76
2022/05/17 01:18:04;;;;;;;8.87;6.27;;;;;;;;;;4436577;28;20039;-76
2022/05/17 01:20:14;;;;;;;7.82;5.70;;;;;;;;;;4436746;28;20027;-77
2022/05/17 01:22:25;;;;;;;7.40;5.83;;;;;;;;;;4439177;28;20058;-77
2022/05/17 01:24:36;;;;;;;7.83;6.00;;;;;;;;;;4437560;28;24032;-76
2022/05/17 01:26:49;;;;;;;7.47;5.87;;;;;;;;;;4438199;28;20099;-76
2022/05/17 01:29:00;;;;;;;10.07;6.50;;;;;;;;;;4422124;28;20040;-77
2022/05/17 01:31:10;;;;;;;7.90;6.00;;;;;;;;;;4421862;28;20520;-77
2022/05/17 01:33:22;;;;;;;8.07;6.27;;;;;;;;;;4438589;28;20059;-77
2022/05/17 01:35:32;;;;;;;8.10;5.88;;;;;;;;;;4438125;28;36001;-77
2022/05/17 01:37:43;;;;;;;8.50;6.43;;;;;;;;;;4437358;28;20044;-77
2022/05/17 01:39:53;;;;;;;9.17;6.40;;;;;;;;;;4438779;28;20031;-77
2022/05/17 01:42:04;;;;;;;9.47;6.17;;;;;;;;;;4438315;28;20019;-77
2022/05/17 01:44:15;;;;;;;8.68;6.20;;;;;;;;;;4438535;28;20036;-77
2022/05/17 01:46:26;;;;;;;7.87;6.07;;;;;;;;;;4437633;28;30533;-77
2022/05/17 01:48:39;;;;;;;6.85;5.68;;;;;;;;;;4437912;28;20070;-77
2022/05/17 01:50:49;;;;;;;7.63;5.60;;;;;;;;;;4422798;28;20036;-76
2022/05/17 01:53:00;;;;;;;9.87;5.87;;;;;;;;;;4439453;28;20046;-77
2022/05/17 01:55:11;;;;;;;8.80;6.60;;;;;;;;;;4437460;28;30503;-77
2022/05/17 01:57:21;;;;;;;8.73;6.20;;;;;;;;;;4438660;28;20035;-76
2022/05/17 01:59:33;;;;;;;8.27;6.40;;;;;;;;;;4420409;28;20036;-77
2022/05/17 02:01:44;;;;;;;8.52;6.03;;;;;;;;;;4438995;28;20579;-76
2022/05/17 02:03:55;;;;;;;;;;;;;;;;;;4438509;28;20038;-77
2022/05/17 02:06:05;;;;;;;7.53;5.35;;;;;;;;;;4439749;28;20686;-77
2022/05/17 02:08:16;;;;;;;7.47;5.60;;;;;;;;;;4438253;28;20050;-77
2022/05/17 02:10:27;;;;;;;7.63;5.33;;;;;;;;;;4423351;28;20043;-77
2022/05/17 02:12:38;;;;;;;7.70;5.70;;;;;;;;;;4438704;28;20035;-77
2022/05/17 02:14:48;;;;;;;8.43;5.63;;;;;;;;;;4436684;28;20043;-77
2022/05/17 02:17:00;;;;;;;9.60;5.80;;;;;;;;;;4436536;28;20134;-77
2022/05/17 02:19:13;;;;;;;7.88;5.65;;;;;;;;;;4439270;28;20034;-77
2022/05/17 02:21:24;;;;;;;6.80;5.40;;;;;;;;;;4439155;28;20550;-77
2022/05/17 02:23:35;;;;;;;8.17;5.60;;;;;;;;;;4437284;28;28979;-77
2022/05/17 02:25:45;;;;;;;8.20;5.97;;;;;;;;;;4439090;28;20600;-76
2022/05/17 02:27:56;;;;;;;7.73;5.63;;;;;;;;;;4436344;28;20055;-77
2022/05/17 02:30:09;;;;;;;8.87;5.67;;;;;;;;;;4438440;28;20315;-77
2022/05/17 02:32:20;;;;;;;8.10;5.20;;;;;;;;;;4429117;28;20063;-77
2022/05/17 02:34:31;;;;;;;7.17;5.10;;;;;;;;;;4437700;28;20543;-77
2022/05/17 02:36:42;;;;;;;7.72;5.40;;;;;;;;;;4436247;28;20046;-77
2022/05/17 02:38:52;;;;;;;7.47;5.17;;;;;;;;;;4428752;28;20043;-76
2022/05/17 02:41:03;;;;;;;8.33;5.30;;;;;;;;;;4436209;28;20044;-77
2022/05/17 02:43:14;;;;;;;7.33;5.27;;;;;;;;;;4437192;28;20126;-77
2022/05/17 02:45:24;;;;;;;7.55;5.25;;;;;;;;;;4436908;28;20040;-76
2022/05/17 02:47:34;;;;;;;7.83;5.30;;;;;;;;;;4438532;28;20126;-77
2022/05/17 02:49:45;;;;;;;7.70;5.23;;;;;;;;;;4438292;28;20086;-76
2022/05/17 02:52:00;;;;;;;6.50;4.80;;;;;;;;;;4439148;28;20083;-77
2022/05/17 02:54:10;;;;;;;6.60;4.93;;;;;;;;;;4437125;28;20078;-77
2022/05/17 02:56:21;;;;;;;6.57;4.40;;;;;;;;;;4436620;28;25927;-76
2022/05/17 02:58:31;;;;;;;7.17;5.00;;;;;;;;;;4435933;28;20054;-77
2022/05/17 03:00:42;;;;;;;6.57;4.77;;;;;;;;;;4419142;28;20032;-76
2022/05/17 03:02:53;;;;;;;;;;;;;;;;;;4438728;28;20031;-76
2022/05/17 03:05:04;;;;;;;5.57;4.30;;;;;;;;;;4437748;28;19922;-77
2022/05/17 03:07:15;;;;;;;6.90;4.47;;;;;;;;;;4436922;28;20050;-77
2022/05/17 03:09:26;;;;;;;5.97;4.25;;;;;;;;;;4421038;28;20083;-76
2022/05/17 03:11:37;;;;;;;7.10;4.73;;;;;;;;;;4419299;28;20110;-77
2022/05/17 03:13:48;;;;;;;6.68;4.65;;;;;;;;;;4436424;28;20118;-77
2022/05/17 03:15:58;;;;;;;6.47;4.43;;;;;;;;;;4438279;28;20171;-77
2022/05/17 03:18:09;;;;;;;4.50;3.43;;;;;;;;;;4420526;28;20087;-77
2022/05/17 03:20:19;;;;;;;4.83;3.50;;;;;;;;;;4438469;28;36572;-77
2022/05/17 03:22:30;;;;;;;5.27;3.87;;;;;;;;;;4421425;28;20154;-77
2022/05/17 03:24:40;;;;;;;5.47;3.40;;;;;;;;;;4437314;28;26353;-77
2022/05/17 03:26:51;;;;;;;4.07;3.00;;;;;;;;;;4436614;28;24548;-77
2022/05/17 03:29:01;;;;;;;4.27;3.33;;;;;;;;;;4438321;28;20039;-77
2022/05/17 03:31:12;;;;;;;4.90;3.43;;;;;;;;;;4437057;28;20042;-77
2022/05/17 03:33:23;;;;;;;4.70;3.50;;;;;;;;;;4420162;28;20047;-77
2022/05/17 03:35:34;;;;;;;4.80;3.43;;;;;;;;;;4425143;28;20047;-77
2022/05/17 03:37:44;;;;;;;4.20;3.03;;;;;;;;;;4420774;28;20334;-77
2022/05/17 03:39:55;;;;;;;4.60;3.30;;;;;;;;;;4420689;28;20048;-77
2022/05/17 03:42:09;;;;;;;5.47;3.13;;;;;;;;;;4436329;28;20399;-77
2022/05/17 03:44:19;;;;;;;3.78;2.80;;;;;;;;;;4436303;28;21133;-77
2022/05/17 03:46:29;;;;;;;2.77;2.27;;;;;;;;;;4437691;28;20098;-78
2022/05/17 03:48:40;;;;;;;1.67;1.50;;;;;;;;;;4437530;28;20496;-77
2022/05/17 03:50:51;;;;;;;2.10;1.90;;;;;;;;;;4437556;28;20043;-77
2022/05/17 03:53:02;;;;;;;3.03;2.40;;;;;;;;;;4437339;28;20044;-77
2022/05/17 03:55:13;;;;;;;2.60;2.00;;;;;;;;;;4437178;28;21268;-77
2022/05/17 03:57:24;;;;;;;3.10;2.10;;;;;;;;;;4435874;28;20035;-77
2022/05/17 03:59:36;;;;;;;3.28;2.50;;;;;;;;;;4436945;28;20043;-77
2022/05/17 04:01:46;;;;;;;4.57;3.07;;;;;;;;;;4435813;28;20046;-77
2022/05/17 04:03:56;;;;;;;5.10;3.00;;;;;;;;;;4436464;28;35529;-76
2022/05/17 04:06:07;;;;;;;2.87;2.57;;;;;;;;;;4435202;28;36193;-77
2022/05/17 04:08:17;;;;;;;3.20;2.50;;;;;;;;;;4436968;28;20047;-77
2022/05/17 04:10:28;;;;;;;4.20;2.57;;;;;;;;;;4438335;28;24805;-77
2022/05/17 04:12:38;;;;;;;4.47;2.83;;;;;;;;;;4424900;28;20035;-77
2022/05/17 04:14:49;;;;;;;3.83;2.80;;;;;;;;;;4421118;28;20365;-77
2022/05/17 04:16:59;;;;;;;4.63;2.80;;;;;;;;;;4438675;28;20075;-77
2022/05/17 04:19:12;;;;;;;4.70;2.80;;;;;;;;;;4439821;28;20035;-77
2022/05/17 04:21:24;;;;;;;3.55;2.50;;;;;;;;;;4438399;28;20036;-77
2022/05/17 04:23:34;;;;;;;3.50;2.60;;;;;;;;;;4439161;28;20058;-77
2022/05/17 04:25:46;;;;;;;4.72;2.83;;;;;;;;;;4438652;28;20035;-77
2022/05/17 04:27:57;;;;;;;4.33;2.93;;;;;;;;;;4436888;28;41688;-78
2022/05/17 04:30:08;;;;;;;3.70;2.37;;;;;;;;;;4439163;28;20146;-77
2022/05/17 04:32:20;;;;;;;3.83;2.80;;;;;;;;;;4438740;28;20212;-78
2022/05/17 04:34:31;;;;;;;2.70;2.20;;;;;;;;;;4439566;28;20600;-77
2022/05/17 04:36:41;;;;;;;4.17;2.27;;;;;;;;;;4439302;28;20035;-77
2022/05/17 04:38:52;;;;;;;3.33;2.27;;;;;;;;;;4438699;28;33520;-77
2022/05/17 04:41:03;;;;;;;3.22;2.53;;;;;;;;;;4428549;28;20788;-77
2022/05/17 04:43:14;;;;;;;2.80;2.20;;;;;;;;;;4438262;28;20044;-77
2022/05/17 04:45:24;;;;;;;3.70;2.60;;;;;;;;;;4438678;28;20039;-77
2022/05/17 04:47:38;;;;;;;4.33;3.37;;;;;;;;;;4438102;28;20519;-78
2022/05/17 04:49:48;;;;;;;5.03;3.08;;;;;;;;;;4424982;28;20139;-77
2022/05/17 04:51:59;;;;;;;7.53;3.70;;;;;;;;;;4437607;28;20043;-77
2022/05/17 04:54:09;;;;;;;6.37;3.67;;;;;;;;;;4438663;28;20495;-77
2022/05/17 04:56:19;;;;;;;6.27;3.73;;;;;;;;;;4440032;28;26618;-77
2022/05/17 04:58:30;;;;;;;4.93;3.30;;;;;;;;;;4438845;28;20043;-77
2022/05/17 05:00:41;;;;;;;5.17;3.30;;;;;;;;;;4423133;28;20044;-77
2022/05/17 05:02:51;;;;;;;5.07;3.30;;;;;;;;;;4423216;28;20457;-77
2022/05/17 05:05:03;;;;;;;5.53;3.40;;;;;;;;;;4421543;28;20169;-78
2022/05/17 05:07:14;;;;;;;4.43;3.33;;;;;;;;;;4421960;28;20044;-77
2022/05/17 05:09:25;;;;;;;5.43;3.80;;;;;;;;;;4439715;28;20444;-78
2022/05/17 05:11:36;;;;;;;5.97;3.45;;;;;;;;;;4439086;28;20030;-78
2022/05/17 05:13:46;;;;;;;5.23;3.27;;;;;;;;;;4437663;28;20048;-78
2022/05/17 05:15:56;;;;;;;4.57;2.90;;;;;;;;;;4438016;28;20150;-78
2022/05/17 05:18:07;;;;;;;5.77;3.40;;;;;;;;;;4438979;28;20067;-78
2022/05/17 05:20:18;;;;;;;4.83;3.30;;;;;;;;;;4437826;28;20040;-77
2022/05/17 05:22:31;;;;;;;6.53;3.53;;;;;;;;;;4440810;28;20039;-77
2022/05/17 05:24:42;;;;;;;4.70;2.88;;;;;;;;;;4423522;28;20202;-77
2022/05/17 05:26:53;;;;;;;5.77;3.43;;;;;;;;;;4440303;28;22651;-78
2022/05/17 05:29:03;;;;;;;4.73;3.40;;;;;;;;;;4439504;28;20136;-78
2022/05/17 05:31:15;;;;;;;5.53;3.03;;;;;;;;;;4437874;28;20043;-78
2022/05/17 05:33:26;;;;;;;5.20;3.15;;;;;;;;;;4438756;28;20089;-78
2022/05/17 05:35:37;;;;;;;5.65;3.67;;;;;;;;;;4425769;28;20024;-78
2022/05/17 05:37:48;;;;;;;5.70;3.40;;;;;;;;;;4421260;28;20036;-78
2022/05/17 05:39:58;;;;;;;5.55;3.40;;;;;;;;;;4437528;28;35774;-78
2022/05/17 05:42:09;;;;;;;5.30;3.50;;;;;;;;;;4438061;28;37643;-79
2022/05/17 05:44:20;;;;;;;8.93;3.80;;;;;;;;;;4422966;28;20043;-78
2022/05/17 05:46:30;;;;;;;6.63;3.90;;;;;;;;;;4439360;28;20039;-78
2022/05/17 05:48:42;;;;;;;5.23;3.80;;;;;;;;;;4435950;28;20550;-79
2022/05/17 05:50:53;;;;;;;6.20;3.55;;;;;;;;;;4421440;28;20044;-78
2022/05/17 05:53:06;;;;;;;7.82;4.20;;;;;;;;;;4438518;28;20063;-78
2022/05/17 05:55:20;;;;;;;5.30;3.67;;;;;;;;;;4437259;28;20035;-79
2022/05/17 05:57:31;;;;;;;5.75;3.55;;;;;;;;;;4439018;28;20043;-80
2022/05/17 05:59:42;;;;;;;5.70;3.45;;;;;;;;;;4436281;28;20067;-78
2022/05/17 06:01:53;;;;;;;6.97;3.97;;;;;;;;;;4421901;28;20039;-78
2022/05/17 06:04:03;;;;;;;5.33;3.90;;;;;;;;;;4420969;28;20043;-78
2022/05/17 06:06:16;;;;;;;6.20;3.53;;;;;;;;;;4439680;28;20127;-79
2022/05/17 06:08:26;;;;;;;6.10;3.88;;;;;;;;;;4422379;28;20161;-78
2022/05/17 06:10:37;;;;;;;6.90;3.60;;;;;;;;;;4438680;28;20043;-79
2022/05/17 06:12:47;;;;;;;5.80;3.53;;;;;;;;;;4436378;28;20040;-79
2022/05/17 06:14:58;;;;;;;6.00;4.05;;;;;;;;;;4437911;28;20115;-79
2022/05/17 06:17:08;;;;;;;7.73;4.17;;;;;;;;;;4437348;28;20090;-79
2022/05/17 06:19:19;;;;;;;6.87;4.27;;;;;;;;;;4438437;28;20039;-78
2022/05/17 06:21:30;;;;;;;5.55;3.40;;;;;;;;;;4436981;28;20039;-77
2022/05/17 06:23:40;;;;;;;5.87;3.60;;;;;;;;;;4437586;28;36007;-77
2022/05/17 06:25:50;;;;;;;6.43;3.80;;;;;;;;;;4437059;28;20046;-79
2022/05/17 06:28:01;;;;;;;6.50;3.87;;;;;;;;;;4436914;28;20123;-78
2022/05/17 06:30:11;;;;;;;3.10;2.30;;;;;;;;;;4437938;28;20507;-78
2022/05/17 06:32:22;;;;;;;4.10;2.93;;;;;;;;;;4437007;28;20035;-71
2022/05/17 06:34:32;;;;;;;3.97;2.90;;;;;;;;;;4419426;28;20092;-66
2022/05/17 06:36:43;;;;;;;5.77;3.60;;;;;;;;;;4438902;28;20373;-67
2022/05/17 06:38:54;;;;;;;6.50;3.43;;;;;;;;;;4437834;28;20050;-66
2022/05/17 06:41:04;;;;;;;6.55;3.28;;;;;;;;;;4437809;28;20071;-66
2022/05/17 06:43:15;;;;;;;5.80;3.40;;;;;;;;;;4438256;28;20450;-66
2022/05/17 06:45:26;;;;;;;6.30;2.87;;;;;;;;;;4437132;28;20040;-67
2022/05/17 06:47:37;;;;;;;6.43;3.25;;;;;;;;;;4407867;28;20212;-66
2022/05/17 06:49:47;;;;;;;6.82;3.08;;;;;;;;;;4436918;28;20870;-66
2022/05/17 06:52:02;;;;;;;5.30;3.03;;;;;;;;;;4436361;28;20031;-65
2022/05/17 06:54:13;;;;;;;5.28;3.03;;;;;;;;;;4420020;28;20659;-66
2022/05/17 06:56:23;;;;;;;6.57;3.77;;;;;;;;;;4436459;28;21685;-66
2022/05/17 06:58:34;;;;;;;4.43;2.97;;;;;;;;;;4420626;28;20444;-66
2022/05/17 07:00:44;;;;;;;5.53;2.80;;;;;;;;;;4436772;28;29228;-66
2022/05/17 07:02:55;;;;;;;4.60;2.30;;;;;;;;;;4437217;28;20043;-66
2022/05/17 07:05:06;;;;;;;4.10;2.50;;;;;;;;;;4437477;28;20063;-67
2022/05/17 07:07:16;;;;;;;;;;;;;;;;;;4437281;28;20137;-66
2022/05/17 07:09:29;;;;;;;4.53;2.37;;;;;;;;;;4437450;28;19922;-66
2022/05/17 07:14:08;;;;;;;4.18;2.17;;;;;;;;;;4421731;28;20035;-66
2022/05/17 07:16:19;;;;;;;5.40;2.00;;;;;;;;;;4436514;28;20044;-66
2022/05/17 07:18:29;;;;;;;5.57;2.43;;;;;;;;;;4438019;28;20540;-66
2022/05/17 07:20:40;;;;;;;3.03;1.50;;;;;;;;;;4437439;28;20048;-66
2022/05/17 07:22:51;;;;;;;2.60;1.63;;;;;;;;;;4436909;28;20923;-66
2022/05/17 07:25:01;;;;;;;5.03;2.13;;;;;;;;;;4437789;28;20918;-66
2022/05/17 07:27:13;;;;;;;3.33;2.20;;;;;;;;;;4424059;28;20272;-66
2022/05/17 07:29:24;;;;;;;4.15;1.80;;;;;;;;;;4436547;28;20035;-66
2022/05/17 07:31:35;;;;;;;3.83;1.70;;;;;;;;;;4437391;28;20028;-67
2022/05/17 07:33:46;;;;;;;2.85;1.60;;;;;;;;;;4437190;28;20102;-65
2022/05/17 07:35:57;;;;;;;4.47;1.90;;;;;;;;;;4437153;28;20071;-67
2022/05/17 07:38:07;;;;;;;2.23;1.20;;;;;;;;;;4437182;28;20476;-68
2022/05/17 07:40:19;;;;;;;3.85;1.67;;;;;;;;;;4438244;28;20138;-65
2022/05/17 07:42:31;;;;;;;3.40;1.67;;;;;;;;;;4436548;28;20060;-66
2022/05/17 07:44:42;;;;;;;3.85;1.40;;;;;;;;;;4439458;28;20027;-66
2022/05/17 07:46:52;;;;;;;1.90;1.40;;;;;;;;;;4440187;28;20039;-66
2022/05/17 07:49:02;;;;;;;3.23;1.27;;;;;;;;;;4421591;28;20056;-65
2022/05/17 07:51:13;;;;;;;2.07;1.13;;;;;;;;;;4437130;28;20359;-75
2022/05/17 07:53:23;;;;;;;3.07;1.43;;;;;;;;;;4422246;28;28368;-79
2022/05/17 07:55:38;;;;;;;3.73;1.40;;;;;;;;;;4441348;28;20042;-80
2022/05/17 07:57:49;;;;;;;3.42;1.30;;;;;;;;;;4440217;28;20126;-80
2022/05/17 07:59:59;;;;;;;2.60;1.43;;;;;;;;;;4439471;28;29801;-81
2022/05/17 08:02:10;;;;;;;2.07;1.47;;;;;;;;;;4438554;28;20385;-80
2022/05/17 08:04:20;;;;;;;2.73;1.50;;;;;;;;;;4437579;28;20043;-81
2022/05/17 08:06:31;;;;;;;4.33;1.50;;;;;;;;;;4438936;28;20035;-82
2022/05/17 08:08:42;;;;;;;2.50;1.50;;;;;;;;;;4440491;28;20287;-82
2022/05/17 08:10:53;;;;;;;3.60;1.43;;;;;;;;;;4410963;28;20040;-82
2022/05/17 08:13:03;;;;;;;2.33;1.15;;;;;;;;;;4431510;28;20036;-81
2022/05/17 08:15:14;;;;;;;3.57;1.50;;;;;;;;;;4440444;28;20055;-81
2022/05/17 08:17:25;;;;;;;4.25;1.52;;;;;;;;;;4438725;28;20036;-82
2022/05/17 08:19:37;;;;;;;3.00;1.55;;;;;;;;;;4438689;28;20048;-81
2022/05/17 08:21:48;;;;;;;3.28;1.50;;;;;;;;;;4439715;28;20150;-82
2022/05/17 08:23:58;;;;;;;3.40;1.43;;;;;;;;;;4439684;28;20046;-83
2022/05/17 08:28:39;;;;;;;2.75;1.58;;;;;;;;;;4439059;28;20595;-82
2022/05/17 08:30:49;;;;;;;2.80;1.50;;;;;;;;;;4440361;28;20151;-82
2022/05/17 08:33:19;;;;;;;2.57;1.37;;;;;;;;;;4438993;28;20047;-83
2022/05/17 08:35:30;;;;;;;3.15;1.50;;;;;;;;;;4438865;28;20059;-82
2022/05/17 08:37:41;;;;;;;3.72;1.70;;;;;;;;;;4439470;28;20569;-82
2022/05/17 08:39:52;;;;;;;4.77;1.63;;;;;;;;;;4439494;28;20031;-83
2022/05/17 08:42:12;;;;;;;2.35;1.05;;;;;;;;;;4438977;28;20042;-83
2022/05/17 08:44:48;;;;;;;1.42;0.90;;;;;;;;;;4438087;28;20126;-83
2022/05/17 08:47:11;;;;;;;2.95;0.98;;;;;;;;;;4439094;28;20028;-83
2022/05/17 08:49:24;;;;;;;2.35;1.00;;;;;;;;;;4439496;28;20047;-83
2022/05/17 08:51:43;;;;;;;3.55;1.10;;;;;;;;;;4438945;28;20697;-83
2022/05/17 08:53:53;;;;;;;3.47;1.40;;;;;;;;;;4431412;28;20043;-84
2022/05/17 08:56:04;;;;;;;2.83;1.20;;;;;;;;;;4438323;28;20499;-84
2022/05/17 08:58:21;;;;;;;4.57;1.50;;;;;;;;;;4423843;28;20040;-83
2022/05/17 09:00:45;;;;;;;2.65;1.08;;;;;;;;;;4425962;28;20044;-84
2022/05/17 09:03:06;;;;;;;2.85;1.10;;;;;;;;;;4423782;28;20044;-84
2022/05/17 09:05:28;;;;;;;2.63;1.30;;;;;;;;;;4439810;28;21000;-84
2022/05/17 09:08:04;;;;;;;3.83;1.45;;;;;;;;;;4437230;28;20634;-84
2022/05/17 09:10:22;;;;;;;3.10;1.58;;;;;;;;;;4439732;28;20520;-84
2022/05/17 09:12:52;;;;;;;2.72;1.10;;;;;;;;;;4426320;28;20719;-84
2022/05/17 09:15:05;;;;;;;3.65;1.38;;;;;;;;;;4431590;28;20044;-84
2022/05/17 09:17:21;;;;;;;3.70;1.42;;;;;;;;;;4424985;28;20047;-84
2022/05/17 09:19:32;;;;;;;2.10;1.10;;;;;;;;;;4426933;28;20039;-84
2022/05/17 09:21:44;;;;;;;3.05;1.40;;;;;;;;;;4428682;28;20039;-84
2022/05/17 09:24:02;;;;;;;4.35;1.50;;;;;;;;;;4430742;28;20036;-83
2022/05/17 09:26:18;;;;;;;4.40;1.80;;;;;;;;;;4439330;28;20039;-84
2022/05/17 09:29:03;;;;;;;3.42;1.33;;;;;;;;;;4425515;28;20623;-84
2022/05/17 09:31:17;;;;;;;4.43;1.70;;;;;;;;;;4420743;28;20044;-84
2022/05/17 09:33:28;;;;;;;4.32;1.88;;;;;;;;;;4421121;28;20036;-84
2022/05/17 09:36:00;;;;;;;3.53;1.57;;;;;;;;;;4438953;28;28849;-84
2022/05/17 09:38:13;;;;;;;3.75;1.65;;;;;;;;;;4438279;28;20145;-84
2022/05/17 09:40:27;;;;;;;3.53;1.70;;;;;;;;;;4437484;28;20041;-84
2022/05/17 09:42:56;;;;;;;4.22;1.58;;;;;;;;;;4420789;28;20618;-84
2022/05/17 09:45:12;;;;;;;4.18;1.88;;;;;;;;;;4438055;28;20735;-84
2022/05/17 09:47:35;;;;;;;4.78;2.45;;;;;;;;;;4408135;28;20702;-84
2022/05/17 09:54:53;;;;;;;3.47;1.80;;;;;;;;;;4436432;28;21213;-84
2022/05/17 09:57:13;;;;;;;;;;;;;;;;;;4438129;28;20116;-83
2022/05/17 09:59:23;;;;;;;4.25;2.10;;;;;;;;;;4438138;28;20009;-83
2022/05/17 10:01:38;;;;;;;4.10;2.03;;;;;;;;;;4435277;28;32688;-83
2022/05/17 10:04:03;;;;;;;5.80;2.25;;;;;;;;;;4420092;28;20326;-83
2022/05/17 10:06:16;;;;;;;5.47;2.33;;;;;;;;;;4420608;28;20642;-84
2022/05/17 10:08:45;;;;;;;4.82;1.92;;;;;;;;;;4422698;28;20784;-83
2022/05/17 10:11:16;;;;;;;4.32;1.80;;;;;;;;;;4438353;28;20035;-83
2022/05/17 10:13:38;;;;;;;3.25;1.50;;;;;;;;;;4422042;28;20048;-83
2022/05/17 10:15:50;;;;;;;;;;;;;;;;;;4436712;28;20051;-82
2022/05/17 10:18:22;;;;;;;3.40;1.60;;;;;;;;;;4420338;28;20501;-83
2022/05/17 10:20:43;;;;;;;4.22;1.60;;;;;;;;;;4437810;28;20036;-83
2022/05/17 10:23:38;;;;;;;2.97;1.52;;;;;;;;;;4420313;28;20027;-83
2022/05/17 10:25:54;;;;;;;6.13;1.80;;;;;;;;;;4437784;28;20189;-82
2022/05/17 10:28:26;;;;;;;4.20;1.70;;;;;;;;;;4435536;28;20043;-82
2022/05/17 10:30:48;;;;;;;;;;;;;;;;;;4436624;28;20031;-82
2022/05/17 10:33:05;;;;;;;3.38;1.90;;;;;;;;;;4420776;28;19919;-83
2022/05/17 10:35:32;;;;;;;4.72;2.00;;;;;;;;;;4419569;28;20788;-82
2022/05/17 10:37:51;;;;;;;3.05;1.55;;;;;;;;;;4436475;28;20043;-83
2022/05/17 10:40:16;;;;;;;3.38;1.88;;;;;;;;;;4421794;28;20123;-83
2022/05/17 10:42:28;;;;;;;5.32;2.17;;;;;;;;;;4423469;28;21071;-83
2022/05/17 10:44:42;;;;;;;4.47;2.13;;;;;;;;;;4437564;28;20051;-83
2022/05/17 10:47:03;;;;;;;3.75;2.05;;;;;;;;;;4428639;28;20264;-83
2022/05/17 10:49:35;;;;;;;4.22;2.00;;;;;;;;;;4418729;28;20591;-84
2022/05/17 10:52:09;;;;;;;4.90;2.30;;;;;;;;;;4418730;28;20663;-84
2022/05/17 10:55:19;;;;;;;5.35;2.05;;;;;;;;;;4437530;28;20866;-83
2022/05/17 10:57:47;;;;;;;5.20;2.38;;;;;;;;;;4366922;29;20109;-84
2022/05/17 11:00:18;;;;;;;5.28;2.85;;;;;;;;;;4437005;28;20126;-83
2022/05/17 11:02:56;;;;;;;4.63;2.42;;;;;;;;;;4438215;28;20538;-83
2022/05/17 11:05:27;;;;;;;3.92;2.25;;;;;;;;;;4436900;28;20112;-80
2022/05/17 11:07:37;;;;;;;4.03;2.20;;;;;;;;;;4420229;28;20052;-83
2022/05/17 11:09:59;;;;;;;5.90;2.60;;;;;;;;;;4438418;28;20035;-83
2022/05/17 11:12:11;;;;;;;4.10;2.40;;;;;;;;;;4437940;28;20790;-83
2022/05/17 11:14:48;;;;;;;4.30;2.50;;;;;;;;;;4419816;28;20080;-83
2022/05/17 11:17:29;;;;;;;3.75;1.98;;;;;;;;;;4434736;28;20957;-82
2022/05/17 11:19:48;;;;;;;4.90;1.93;;;;;;;;;;4438909;28;20039;-83
2022/05/17 11:22:21;;;;;;;3.80;1.80;;;;;;;;;;4424425;28;20122;-83
2022/05/17 11:24:50;;;;;;;5.32;2.35;;;;;;;;;;4423407;28;20035;-83
2022/05/17 11:27:20;;;;;;;3.55;2.00;;;;;;;;;;4439895;28;20035;-82
2022/05/17 11:30:04;;;;;;;6.00;2.35;;;;;;;;;;4439465;28;20119;-82
2022/05/17 11:32:14;;;;;;;5.05;2.22;;;;;;;;;;4439097;28;20086;-82
2022/05/17 11:34:28;;;;;;;4.20;2.00;;;;;;;;;;4441831;28;20042;-83
2022/05/17 11:36:43;;;;;;;3.72;2.00;;;;;;;;;;4441752;28;21241;-83
2022/05/17 11:38:54;;;;;;;6.22;2.40;;;;;;;;;;4423131;28;20135;-82
2022/05/17 11:41:14;;;;;;;5.63;2.17;;;;;;;;;;4440769;28;20118;-82
2022/05/17 11:43:44;;;;;;;3.83;1.87;;;;;;;;;;4416239;28;20055;-82
2022/05/17 11:45:56;;;;;;;5.20;2.10;;;;;;;;;;4441179;28;20040;-82
2022/05/17 11:48:14;;;;;;;3.88;1.60;;;;;;;;;;4423814;28;20040;-82
2022/05/17 11:50:28;;;;;;;3.70;1.85;;;;;;;;;;4422308;28;20614;-81
2022/05/17 11:52:38;;;;;;;4.63;1.90;;;;;;;;;;4442844;28;20040;-81
2022/05/17 11:54:51;;;;;;;5.27;2.10;;;;;;;;;;4442218;28;20035;-82
2022/05/17 11:57:02;;;;;;;4.05;1.80;;;;;;;;;;4423390;28;20928;-82
2022/05/17 11:59:13;;;;;;;4.17;1.93;;;;;;;;;;4424187;28;20178;-82
2022/05/17 12:01:26;;;;;;;4.23;1.97;;;;;;;;;;4442013;28;20039;-82
2022/05/17 12:03:50;;;;;;;4.70;2.50;;;;;;;;;;4440358;28;20621;-82
2022/05/17 12:06:01;;;;;;;3.78;2.20;;;;;;;;;;4440073;28;20623;-82
2022/05/17 12:08:27;;;;;;;6.33;2.30;;;;;;;;;;4426514;28;20035;-81
2022/05/17 12:10:37;;;;;;;5.95;2.17;;;;;;;;;;4440883;28;21063;-82
2022/05/17 12:12:54;;;;;;;5.03;2.30;;;;;;;;;;4441391;28;20035;-82
2022/05/17 12:15:41;;;;;;;3.85;1.70;;;;;;;;;;4422527;28;20155;-81
2022/05/17 12:18:13;;;;;;;5.53;1.90;;;;;;;;;;4437671;28;20498;-82
2022/05/17 12:20:51;;;;;;;3.47;1.58;;;;;;;;;;4421870;28;20036;-82
2022/05/17 12:23:21;;;;;;;2.95;1.35;;;;;;;;;;4432028;28;20043;-82
2022/05/17 12:26:09;;;;;;;3.05;1.33;;;;;;;;;;4438899;28;20046;-82
2022/05/17 12:28:28;;;;;;;4.00;1.60;;;;;;;;;;4423632;28;20040;-81
2022/05/17 12:30:54;;;;;;;3.30;1.38;;;;;;;;;;4431225;28;20130;-82
2022/05/17 12:33:26;;;;;;;4.15;1.70;;;;;;;;;;4440978;28;20028;-82
2022/05/17 12:35:37;;;;;;;5.63;1.77;;;;;;;;;;4440353;28;20055;-82
2022/05/17 12:37:48;;;;;;;3.22;1.35;;;;;;;;;;4423854;28;20044;-82
2022/05/17 12:45:00;;;;;;;4.28;1.60;;;;;;;;;;4438745;28;20035;-82
2022/05/17 12:47:17;;;;;;;3.42;1.60;;;;;;;;;;4439392;28;20131;-82
2022/05/17 12:49:30;;;;;;;5.05;1.70;;;;;;;;;;4426699;28;20599;-81
2022/05/17 12:51:41;;;;;;;4.55;1.80;;;;;;;;;;4438353;28;20040;-82
2022/05/17 12:53:58;;;;;;;3.97;1.45;;;;;;;;;;4438679;28;20082;-82
2022/05/17 12:56:09;;;;;;;4.03;1.70;;;;;;;;;;4439866;28;20074;-82
2022/05/17 12:58:21;;;;;;;4.13;1.57;;;;;;;;;;4440620;28;20128;-83
2022/05/17 13:00:33;;;;;;;4.15;1.50;;;;;;;;;;4439237;28;20035;-83
2022/05/17 13:02:49;;;;;;;5.07;1.70;;;;;;;;;;4441278;28;20031;-82
2022/05/17 13:04:59;;;;;;;4.95;1.80;;;;;;;;;;4422673;28;20553;-82
2022/05/17 13:07:16;;;;;;;4.40;2.00;;;;;;;;;;4436534;28;20485;-83
2022/05/17 13:09:27;;;;;;;3.55;1.65;;;;;;;;;;4438357;28;20048;-82
2022/05/17 13:11:38;;;;;;;3.23;1.43;;;;;;;;;;4409415;28;20040;-82
2022/05/17 13:13:48;;;;;;;4.85;1.85;;;;;;;;;;4422826;28;20035;-82
2022/05/17 13:16:11;;;;;;;2.77;1.30;;;;;;;;;;4425749;28;20044;-82
2022/05/17 13:18:22;;;;;;;2.85;1.20;;;;;;;;;;4423364;28;20032;-82
2022/05/17 13:20:33;;;;;;;3.97;1.58;;;;;;;;;;4421412;28;20032;-83
2022/05/17 13:22:46;;;;;;;3.35;1.30;;;;;;;;;;4439621;28;20172;-82
2022/05/17 13:25:03;;;;;;;5.50;1.70;;;;;;;;;;4431658;28;20032;-83
2022/05/17 13:27:27;;;;;;;2.55;1.17;;;;;;;;;;4422175;28;20682;-83
2022/05/17 13:29:40;;;;;;;2.83;1.23;;;;;;;;;;4440258;28;20051;-81
2022/05/17 13:32:02;;;;;;;6.13;2.03;;;;;;;;;;4424960;28;21116;-81
2022/05/17 13:34:34;;;;;;;2.85;1.30;;;;;;;;;;4421607;28;20671;-82
2022/05/17 13:36:44;;;;;;;3.78;1.17;;;;;;;;;;4439729;28;20039;-82
2022/05/17 13:38:55;;;;;;;2.43;1.30;;;;;;;;;;4437909;28;20046;-82
2022/05/17 13:41:22;;;;;;;3.13;1.33;;;;;;;;;;4414512;28;20102;-82
2022/05/17 13:43:40;;;;;;;3.83;1.25;;;;;;;;;;4424129;28;20651;-81
2022/05/17 13:46:14;;;;;;;4.20;1.30;;;;;;;;;;4439883;28;20124;-82
2022/05/17 13:48:25;;;;;;;3.20;1.30;;;;;;;;;;4426007;28;20096;-82